createdAt,value
2018-01-27T00:00:46.239Z,125.23
2018-01-27T00:03:13.759Z,118.57
2018-01-27T00:05:41.296Z,121.63
2018-01-27T00:08:08.821Z,128.10
2018-01-27T00:10:36.400Z,111.00
2018-01-27T00:13:03.947Z,108.90
2018-01-27T00:15:32.847Z,118.60
2018-01-27T00:18:01.191Z,128.80
2018-01-27T00:20:28.724Z,144.70
2018-01-27T00:22:56.256Z,122.10
2018-01-27T00:25:23.770Z,121.77
2018-01-27T00:27:52.077Z,131.13
2018-01-27T00:30:19.601Z,116.90
2018-01-27T00:32:47.166Z,116.60
2018-01-27T00:35:14.685Z,113.07
2018-01-27T00:37:42.219Z,112.07
2018-01-27T00:40:09.744Z,125.77
2018-01-27T00:42:38.040Z,115.97
2018-01-27T00:45:05.577Z,126.20
2018-01-27T00:47:33.278Z,120.00
2018-01-27T00:50:01.174Z,106.10
2018-01-27T00:52:29.494Z,123.07
2018-01-27T00:54:57.062Z,114.13
2018-01-27T00:57:25.351Z,123.63
2018-01-27T00:59:52.886Z,134.93
2018-01-27T01:02:20.412Z,130.17
2018-01-27T01:04:48.715Z,121.37
2018-01-27T01:07:16.348Z,109.33
2018-01-27T01:09:43.923Z,132.37
2018-01-27T01:12:11.439Z,124.63
2018-01-27T01:14:38.985Z,128.47
2018-01-27T01:17:06.689Z,121.03
2018-01-27T01:19:34.289Z,122.17
2018-01-27T01:22:01.873Z,134.67
2018-01-27T01:24:29.474Z,133.93
2018-01-27T01:26:57.853Z,140.83
2018-01-27T01:29:25.389Z,142.70
2018-01-27T01:31:52.937Z,138.80
2018-01-27T01:34:20.481Z,143.10
2018-01-27T01:36:48.024Z,126.70
2018-01-27T01:39:17.007Z,132.82
2018-01-27T01:41:44.643Z,113.37
2018-01-27T01:44:17.719Z,112.03
2018-01-27T01:46:45.263Z,116.17
2018-01-27T01:49:23.744Z,124.97
2018-01-27T01:51:51.307Z,119.37
2018-01-27T01:54:18.829Z,116.27
2018-01-27T01:56:47.164Z,123.80
2018-01-27T01:59:15.604Z,128.95
2018-01-27T02:01:43.143Z,114.20
2018-01-27T02:04:10.654Z,128.33
2018-01-27T02:06:38.202Z,125.33
2018-01-27T02:09:05.792Z,118.77
2018-01-27T02:11:33.392Z,113.30
2018-01-27T02:14:01.023Z,135.83
2018-01-27T02:16:28.592Z,123.67
2018-01-27T02:18:56.126Z,124.70
2018-01-27T02:21:23.642Z,121.07
2018-01-27T02:23:51.960Z,116.57
2018-01-27T02:26:19.487Z,139.73
2018-01-27T02:28:47.046Z,131.33
2018-01-27T02:31:14.581Z,124.03
2018-01-27T02:33:42.195Z,125.87
2018-01-27T02:36:09.720Z,117.37
2018-01-27T02:38:38.031Z,134.10
2018-01-27T02:41:05.552Z,124.83
2018-01-27T02:43:33.194Z,126.35
2018-01-27T02:46:00.886Z,128.70
2018-01-27T02:48:28.532Z,123.93
2018-01-27T02:50:56.079Z,129.20
2018-01-27T02:53:23.608Z,128.67
2018-01-27T02:55:51.174Z,133.07
2018-01-27T02:58:18.792Z,134.03
2018-01-27T03:00:46.333Z,122.77
2018-01-27T03:03:13.871Z,125.37
2018-01-27T03:05:41.403Z,121.53
2018-01-27T03:08:08.936Z,134.00
2018-01-27T03:10:37.242Z,137.83
2018-01-27T03:13:04.788Z,132.45
2018-01-27T03:15:32.373Z,126.77
2018-01-27T03:18:00.672Z,130.90
2018-01-27T03:20:28.203Z,141.57
2018-01-27T03:22:55.719Z,134.80
2018-01-27T03:25:23.999Z,142.67
2018-01-27T03:27:51.533Z,134.70
2018-01-27T03:30:19.918Z,125.87
2018-01-27T03:32:47.462Z,119.60
2018-01-27T03:35:15.040Z,112.00
2018-01-27T03:37:42.575Z,92.33
2018-01-27T03:40:10.100Z,114.73
2018-01-27T03:42:37.639Z,115.23
2018-01-27T03:45:05.173Z,115.30
2018-01-27T03:47:32.807Z,113.20
2018-01-27T03:50:01.158Z,124.00
2018-01-27T03:52:28.962Z,108.97
2018-01-27T03:54:56.487Z,129.80
2018-01-27T03:57:24.021Z,108.80
2018-01-27T03:59:52.306Z,108.27
2018-01-27T04:02:20.723Z,117.65
2018-01-27T04:04:48.259Z,108.93
2018-01-27T04:07:15.869Z,111.13
2018-01-27T04:09:43.410Z,129.13
2018-01-27T04:12:10.927Z,147.00
2018-01-27T04:14:38.477Z,124.33
2018-01-27T04:17:06.007Z,126.60
2018-01-27T04:19:34.331Z,127.00
2018-01-27T04:22:01.856Z,122.43
2018-01-27T04:24:29.437Z,131.10
2018-01-27T04:26:56.961Z,127.73
2018-01-27T04:29:24.553Z,138.90
2018-01-27T04:31:52.068Z,122.73
2018-01-27T04:34:19.675Z,137.93
2018-01-27T04:36:47.230Z,128.80
2018-01-27T04:39:14.769Z,135.03
2018-01-27T04:41:42.282Z,142.80
2018-01-27T04:44:09.796Z,109.83
2018-01-27T04:46:37.347Z,125.43
2018-01-27T04:49:05.703Z,138.03
2018-01-27T04:51:34.014Z,125.87
2018-01-27T04:54:01.819Z,142.27
2018-01-27T04:56:29.379Z,128.18
2018-01-27T04:58:56.963Z,110.47
2018-01-27T05:01:24.505Z,118.65
2018-01-27T05:03:52.056Z,130.13
2018-01-27T05:06:19.588Z,111.60
2018-01-27T05:08:47.098Z,129.60
2018-01-27T05:11:16.376Z,133.83
2018-01-27T05:13:44.669Z,111.95
2018-01-27T05:16:12.200Z,125.80
2018-01-27T05:18:39.720Z,131.20
2018-01-27T05:21:08.031Z,126.90
2018-01-27T05:23:35.602Z,114.43
2018-01-27T05:26:03.325Z,122.07
2018-01-27T05:28:30.868Z,123.27
2018-01-27T05:30:59.243Z,129.87
2018-01-27T05:33:26.764Z,145.83
2018-01-27T05:35:54.285Z,123.07
2018-01-27T05:38:23.506Z,128.10
2018-01-27T05:40:51.023Z,145.07
2018-01-27T05:43:18.562Z,120.13
2018-01-27T05:45:46.083Z,122.40
2018-01-27T05:48:14.379Z,123.23
2018-01-27T05:50:41.899Z,121.97
2018-01-27T05:53:10.229Z,123.83
2018-01-27T05:55:37.859Z,113.07
2018-01-27T05:58:05.392Z,127.17
2018-01-27T06:00:32.940Z,130.57
2018-01-27T06:03:01.086Z,125.77
2018-01-27T06:05:28.644Z,111.70
2018-01-27T06:07:56.209Z,133.53
2018-01-27T06:10:23.720Z,118.63
2018-01-27T06:12:51.235Z,129.00
2018-01-27T06:15:19.641Z,110.83
2018-01-27T06:17:47.159Z,128.30
2018-01-27T06:20:14.691Z,128.60
2018-01-27T06:22:42.979Z,118.43
2018-01-27T06:25:10.509Z,128.13
2018-01-27T06:27:38.056Z,124.43
2018-01-27T06:30:05.589Z,115.77
2018-01-27T06:32:33.943Z,117.78
2018-01-27T06:35:02.444Z,107.37
2018-01-27T06:37:30.093Z,114.67
2018-01-27T06:39:58.427Z,112.80
2018-01-27T06:42:26.008Z,109.07
2018-01-27T06:44:53.552Z,113.70
2018-01-27T06:47:21.091Z,101.47
2018-01-27T06:49:48.607Z,119.00
2018-01-27T06:52:16.148Z,104.07
2018-01-27T06:54:44.431Z,117.30
2018-01-27T06:57:11.967Z,123.00
2018-01-27T06:59:39.488Z,107.87
2018-01-27T07:02:07.789Z,120.53
2018-01-27T07:04:35.363Z,107.63
2018-01-27T07:07:02.983Z,112.90
2018-01-27T07:09:30.803Z,117.13
2018-01-27T07:11:58.475Z,124.60
2018-01-27T07:14:26.068Z,123.33
2018-01-27T07:16:53.595Z,123.87
2018-01-27T07:19:21.155Z,111.87
2018-01-27T07:21:48.711Z,124.57
2018-01-27T07:24:16.997Z,118.70
2018-01-27T07:26:44.597Z,102.80
2018-01-27T07:29:12.933Z,118.03
2018-01-27T07:31:40.448Z,128.53
2018-01-27T07:34:08.943Z,116.75
2018-01-27T07:36:36.528Z,132.60
2018-01-27T07:39:04.121Z,115.13
2018-01-27T07:41:32.620Z,124.87
2018-01-27T07:44:00.211Z,129.52
2018-01-27T07:46:27.735Z,116.57
2018-01-27T07:48:56.039Z,108.03
2018-01-27T07:51:23.553Z,104.23
2018-01-27T07:53:51.956Z,104.60
2018-01-27T07:56:20.655Z,85.10
2018-01-27T07:58:48.187Z,101.60
2018-01-27T08:01:15.703Z,86.37
2018-01-27T08:03:43.256Z,100.90
2018-01-27T08:06:10.793Z,90.97
2018-01-27T08:08:38.307Z,91.97
2018-01-27T08:11:06.028Z,91.72
2018-01-27T08:13:34.479Z,86.00
2018-01-27T08:16:02.320Z,78.72
2018-01-27T08:18:29.861Z,70.30
2018-01-27T08:20:57.415Z,59.90
2018-01-27T08:23:24.952Z,40.53
2018-01-27T08:25:52.515Z,77.50
2018-01-27T08:28:20.048Z,53.10
2018-01-27T08:30:47.590Z,53.00
2018-01-27T08:33:15.120Z,51.13
2018-01-27T08:35:42.676Z,55.50
2018-01-27T08:38:10.184Z,57.27
2018-01-27T08:40:37.858Z,49.13
2018-01-27T08:43:05.375Z,59.07
2018-01-27T08:45:32.955Z,52.30
2018-01-27T08:48:00.903Z,65.33
2018-01-27T08:50:28.432Z,43.93
2018-01-27T08:52:55.996Z,49.77
2018-01-27T08:55:23.765Z,53.60
2018-01-27T08:57:51.311Z,51.00
2018-01-27T09:00:18.819Z,53.97
2018-01-27T09:02:46.477Z,49.10
2018-01-27T09:05:14.037Z,52.07
2018-01-27T09:07:41.565Z,48.90
2018-01-27T09:10:09.147Z,49.30
2018-01-27T09:12:37.451Z,46.40
2018-01-27T09:15:04.993Z,41.70
2018-01-27T09:17:32.696Z,44.13
2018-01-27T09:20:01.173Z,42.20
2018-01-27T09:22:28.719Z,44.97
2018-01-27T09:24:57.023Z,37.60
2018-01-27T09:27:24.531Z,45.97
2018-01-27T09:29:52.824Z,41.27
2018-01-27T09:32:20.339Z,44.10
2018-01-27T09:34:48.635Z,59.20
2018-01-27T09:37:16.144Z,42.00
2018-01-27T09:39:44.441Z,45.07
2018-01-27T09:42:12.013Z,50.77
2018-01-27T09:44:39.539Z,32.77
2018-01-27T09:47:07.052Z,36.20
2018-01-27T09:49:35.413Z,39.20
2018-01-27T09:52:03.216Z,40.43
2018-01-27T09:54:31.604Z,47.70
2018-01-27T09:56:59.128Z,31.17
2018-01-27T09:59:27.285Z,41.80
2018-01-27T10:01:54.849Z,41.73
2018-01-27T10:04:22.513Z,41.80
2018-01-27T10:06:51.946Z,58.47
2018-01-27T10:09:19.474Z,29.83
2018-01-27T10:11:47.010Z,39.13
2018-01-27T10:14:14.580Z,38.67
2018-01-27T10:16:42.131Z,38.88
2018-01-27T10:19:09.664Z,33.10
2018-01-27T10:21:37.192Z,51.07
2018-01-27T10:24:05.799Z,28.73
2018-01-27T10:26:34.260Z,45.87
2018-01-27T10:29:02.296Z,41.70
2018-01-27T10:31:30.675Z,45.42
2018-01-27T10:33:59.001Z,34.47
2018-01-27T10:36:26.590Z,43.07
2018-01-27T10:38:54.145Z,39.13
2018-01-27T10:41:21.671Z,31.93
2018-01-27T10:43:49.248Z,35.00
2018-01-27T10:46:18.443Z,49.23
2018-01-27T10:48:46.739Z,46.60
2018-01-27T10:51:14.250Z,39.77
2018-01-27T10:53:42.549Z,40.10
2018-01-27T10:56:10.071Z,38.93
2018-01-27T10:58:37.750Z,39.20
2018-01-27T11:01:06.028Z,48.10
2018-01-27T11:03:33.568Z,40.60
2018-01-27T11:06:01.785Z,40.70
2018-01-27T11:08:29.575Z,41.13
2018-01-27T11:10:57.095Z,43.67
2018-01-27T11:13:24.670Z,45.53
2018-01-27T11:15:52.196Z,51.60
2018-01-27T11:18:19.716Z,46.80
2018-01-27T11:20:47.261Z,45.00
2018-01-27T11:23:14.811Z,43.80
2018-01-27T11:25:42.343Z,36.83
2018-01-27T11:28:09.860Z,40.33
2018-01-27T11:30:37.462Z,42.47
2018-01-27T11:33:05.055Z,43.00
2018-01-27T11:35:34.094Z,52.95
2018-01-27T11:38:01.685Z,45.83
2018-01-27T11:40:29.993Z,40.93
2018-01-27T11:42:57.651Z,52.83
2018-01-27T11:45:25.396Z,54.60
2018-01-27T11:47:52.916Z,46.47
2018-01-27T11:50:20.459Z,40.97
2018-01-27T11:52:49.023Z,39.53
2018-01-27T11:55:16.698Z,42.50
2018-01-27T11:57:44.242Z,40.67
2018-01-27T12:00:11.756Z,37.30
2018-01-27T12:02:39.304Z,46.83
2018-01-27T12:05:06.824Z,41.07
2018-01-27T12:07:35.260Z,46.57
2018-01-27T12:10:03.292Z,41.17
2018-01-27T12:12:31.521Z,44.23
2018-01-27T12:14:59.159Z,36.37
2018-01-27T12:17:27.470Z,38.20
2018-01-27T12:19:55.110Z,45.83
2018-01-27T12:22:22.785Z,44.07
2018-01-27T12:24:51.079Z,56.13
2018-01-27T12:27:19.406Z,45.37
2018-01-27T12:29:47.719Z,50.50
2018-01-27T12:32:15.247Z,43.80
2018-01-27T12:34:43.604Z,44.38
2018-01-27T12:37:11.239Z,45.80
2018-01-27T12:39:38.799Z,41.77
2018-01-27T12:42:06.493Z,44.47
2018-01-27T12:44:36.267Z,41.53
2018-01-27T12:47:04.432Z,49.77
2018-01-27T12:49:33.560Z,38.97
2018-01-27T12:52:05.259Z,42.03
2018-01-27T12:54:33.567Z,38.57
2018-01-27T12:57:01.622Z,51.78
2018-01-27T12:59:29.160Z,37.50
2018-01-27T13:01:56.668Z,49.90
2018-01-27T13:07:07.383Z,49.63
2018-01-27T13:09:35.275Z,44.58
2018-01-27T13:12:03.039Z,46.67
2018-01-27T13:14:31.039Z,50.10
2018-01-27T13:16:58.653Z,42.87
2018-01-27T13:19:26.219Z,45.10
2018-01-27T13:21:55.550Z,41.63
2018-01-27T13:24:23.840Z,35.63
2018-01-27T13:26:51.903Z,37.83
2018-01-27T13:29:19.486Z,35.07
2018-01-27T13:31:47.091Z,56.87
2018-01-27T13:34:14.611Z,32.00
2018-01-27T13:36:42.250Z,36.50
2018-01-27T13:39:11.336Z,31.77
2018-01-27T13:41:38.983Z,31.90
2018-01-27T13:44:06.837Z,35.80
2018-01-27T13:46:35.452Z,29.67
2018-01-27T13:49:04.004Z,34.93
2018-01-27T13:51:32.597Z,32.13
2018-01-27T13:54:01.007Z,25.87
2018-01-27T13:56:29.339Z,42.73
2018-01-27T13:58:56.872Z,37.87
2018-01-27T14:01:25.182Z,29.20
2018-01-27T14:03:52.718Z,24.53
2018-01-27T14:06:20.240Z,34.90
2018-01-27T14:08:47.890Z,31.70
2018-01-27T14:11:15.433Z,26.63
2018-01-27T14:13:42.996Z,27.73
2018-01-27T14:16:10.519Z,26.17
2018-01-27T14:18:38.044Z,40.27
2018-01-27T14:21:05.671Z,39.07
2018-01-27T14:23:33.457Z,42.43
2018-01-27T14:26:00.998Z,36.63
2018-01-27T14:28:28.539Z,40.93
2018-01-27T14:30:56.076Z,34.07
2018-01-27T14:33:23.620Z,34.43
2018-01-27T14:35:51.924Z,35.63
2018-01-27T14:38:19.432Z,33.37
2018-01-27T14:40:46.981Z,39.20
2018-01-27T14:43:14.496Z,38.90
2018-01-27T14:45:42.048Z,34.70
2018-01-27T14:48:10.364Z,33.00
2018-01-27T14:50:37.900Z,38.87
2018-01-27T14:53:05.407Z,45.07
2018-01-27T14:55:33.911Z,39.93
2018-01-27T14:58:01.533Z,32.37
2018-01-27T15:00:29.104Z,38.27
2018-01-27T15:02:56.623Z,32.50
2018-01-27T15:05:24.158Z,36.63
2018-01-27T15:07:51.715Z,35.97
2018-01-27T15:10:19.260Z,36.03
2018-01-27T15:12:46.791Z,41.30
2018-01-27T15:15:14.372Z,35.27
2018-01-27T15:17:41.934Z,37.00
2018-01-27T15:20:09.454Z,34.27
2018-01-27T15:22:38.729Z,38.78
2018-01-27T15:25:06.248Z,41.33
2018-01-27T15:27:34.617Z,43.40
2018-01-27T15:30:02.305Z,48.07
2018-01-27T15:32:29.859Z,39.57
2018-01-27T15:34:57.407Z,47.00
2018-01-27T15:37:24.952Z,39.57
2018-01-27T15:39:52.463Z,47.53
2018-01-27T15:42:20.024Z,46.83
2018-01-27T15:44:47.555Z,43.63
2018-01-27T15:47:15.315Z,43.23
2018-01-27T15:49:42.867Z,43.73
2018-01-27T15:52:10.388Z,43.10
2018-01-27T15:54:39.968Z,44.03
2018-01-27T15:57:07.621Z,40.37
2018-01-27T15:59:35.176Z,45.10
2018-01-27T16:02:02.749Z,50.47
2018-01-27T16:04:30.386Z,50.93
2018-01-27T16:06:57.925Z,49.00
2018-01-27T16:09:26.371Z,35.93
2018-01-27T16:11:53.895Z,50.70
2018-01-27T16:14:21.476Z,41.97
2018-01-27T16:16:48.992Z,46.40
2018-01-27T16:19:16.543Z,69.73
2018-01-27T16:21:44.191Z,52.43
2018-01-27T16:24:11.702Z,58.10
2018-01-27T16:26:40.349Z,44.35
2018-01-27T16:29:07.892Z,46.77
2018-01-27T16:31:35.433Z,46.03
2018-01-27T16:34:02.988Z,48.97
2018-01-27T16:36:30.527Z,44.83
2018-01-27T16:38:58.469Z,50.37
2018-01-27T16:41:26.104Z,57.03
2018-01-27T16:43:53.615Z,56.77
2018-01-27T16:46:21.143Z,52.73
2018-01-27T16:48:49.791Z,69.33
2018-01-27T16:51:17.610Z,52.77
2018-01-27T16:53:45.183Z,47.47
2018-01-27T16:56:12.734Z,46.50
2018-01-27T16:58:40.258Z,62.70
2018-01-27T17:01:07.776Z,51.43
2018-01-27T17:03:35.323Z,50.50
2018-01-27T17:06:02.895Z,53.43
2018-01-27T17:08:30.544Z,59.60
2018-01-27T17:10:58.237Z,48.87
2018-01-27T17:13:25.771Z,47.23
2018-01-27T17:15:54.084Z,59.50
2018-01-27T17:18:21.631Z,55.87
2018-01-27T17:20:49.234Z,51.60
2018-01-27T17:23:16.768Z,49.97
2018-01-27T17:25:45.054Z,59.30
2018-01-27T17:28:12.612Z,49.00
2018-01-27T17:30:40.724Z,59.33
2018-01-27T17:33:09.152Z,55.83
2018-01-27T17:35:36.742Z,62.90
2018-01-27T17:38:05.019Z,62.10
2018-01-27T17:40:32.557Z,62.20
2018-01-27T17:43:00.841Z,54.60
2018-01-27T17:45:28.371Z,52.13
2018-01-27T17:47:55.933Z,54.23
2018-01-27T17:50:23.468Z,56.17
2018-01-27T17:52:51.000Z,52.50
2018-01-27T17:55:18.542Z,57.93
2018-01-27T17:57:46.063Z,60.93
2018-01-27T18:00:14.660Z,54.10
2018-01-27T18:02:42.945Z,54.00
2018-01-27T18:05:10.489Z,52.10
2018-01-27T18:07:38.030Z,53.57
2018-01-27T18:10:05.664Z,56.40
2018-01-27T18:12:33.187Z,53.37
2018-01-27T18:15:01.526Z,80.40
2018-01-27T18:17:29.044Z,68.20
2018-01-27T18:19:56.559Z,61.65
2018-01-27T18:22:24.091Z,58.73
2018-01-27T18:24:51.775Z,61.47
2018-01-27T18:27:19.335Z,58.03
2018-01-27T18:29:46.855Z,55.80
2018-01-27T18:32:14.489Z,58.37
2018-01-27T18:34:42.027Z,63.03
2018-01-27T18:37:09.575Z,63.53
2018-01-27T18:39:37.109Z,60.78
2018-01-27T18:42:04.639Z,71.20
2018-01-27T18:44:32.275Z,68.63
2018-01-27T18:46:59.889Z,74.03
2018-01-27T18:49:27.421Z,68.57
2018-01-27T18:51:54.988Z,71.90
2018-01-27T18:54:24.142Z,69.30
2018-01-27T18:56:51.656Z,68.37
2018-01-27T18:59:19.182Z,73.07
2018-01-27T19:01:47.475Z,71.17
2018-01-27T19:04:15.032Z,74.93
2018-01-27T19:06:43.360Z,66.87
2018-01-27T19:09:11.656Z,70.87
2018-01-27T19:11:39.345Z,76.73
2018-01-27T19:14:06.888Z,68.43
2018-01-27T19:16:34.442Z,87.50
2018-01-27T19:19:01.972Z,72.37
2018-01-27T19:21:29.484Z,74.43
2018-01-27T19:23:57.007Z,70.17
2018-01-27T19:26:24.531Z,74.90
2018-01-27T19:28:52.842Z,69.90
2018-01-27T19:31:20.355Z,77.20
2018-01-27T19:33:47.899Z,83.30
2018-01-27T19:36:16.085Z,69.13
2018-01-27T19:38:43.615Z,72.63
2018-01-27T19:41:11.357Z,82.23
2018-01-27T19:43:38.895Z,78.72
2018-01-27T19:46:06.491Z,74.67
2018-01-27T19:48:34.011Z,77.90
2018-01-27T19:51:01.547Z,75.53
2018-01-27T19:53:29.068Z,87.87
2018-01-27T19:55:56.614Z,75.35
2018-01-27T19:58:24.337Z,105.72
2018-01-27T20:00:52.645Z,79.40
2018-01-27T20:03:20.166Z,75.00
2018-01-27T20:05:47.711Z,91.03
2018-01-27T20:08:15.270Z,91.70
2018-01-27T20:10:44.120Z,89.00
2018-01-27T20:13:13.260Z,91.07
2018-01-27T20:15:40.782Z,88.67
2018-01-27T20:18:08.325Z,82.40
2018-01-27T20:20:35.982Z,93.57
2018-01-27T20:23:03.573Z,92.23
2018-01-27T20:25:31.120Z,96.20
2018-01-27T20:27:59.415Z,93.77
2018-01-27T20:30:26.927Z,104.27
2018-01-27T20:32:55.338Z,91.57
2018-01-27T20:35:22.893Z,86.87
2018-01-27T20:37:50.453Z,89.00
2018-01-27T20:40:17.980Z,100.17
2018-01-27T20:42:45.688Z,83.83
2018-01-27T20:45:13.278Z,98.10
2018-01-27T20:47:40.904Z,94.23
2018-01-27T20:50:08.440Z,104.90
2018-01-27T20:52:35.973Z,106.27
2018-01-27T20:55:03.532Z,97.07
2018-01-27T20:57:31.089Z,98.80
2018-01-27T20:59:58.697Z,89.70
2018-01-27T21:02:26.219Z,105.97
2018-01-27T21:04:54.526Z,98.67
2018-01-27T21:07:22.043Z,91.23
2018-01-27T21:09:50.343Z,116.33
2018-01-27T21:12:17.920Z,103.47
2018-01-27T21:14:45.452Z,99.90
2018-01-27T21:17:12.993Z,95.53
2018-01-27T21:19:40.563Z,102.30
2018-01-27T21:22:08.082Z,99.37
2018-01-27T21:24:35.616Z,103.90
2018-01-27T21:27:03.185Z,102.73
2018-01-27T21:29:30.746Z,110.97
2018-01-27T21:31:59.059Z,106.07
2018-01-27T21:34:26.604Z,99.82
2018-01-27T21:36:54.144Z,108.43
2018-01-27T21:39:21.680Z,114.62
2018-01-27T21:41:49.242Z,118.47
2018-01-27T21:44:16.777Z,94.97
2018-01-27T21:46:44.732Z,104.93
2018-01-27T21:49:12.272Z,90.70
2018-01-27T21:51:39.828Z,105.80
2018-01-27T21:54:07.347Z,89.03
2018-01-27T21:56:34.911Z,98.30
2018-01-27T21:59:02.449Z,98.77
2018-01-27T22:01:30.220Z,98.67
2018-01-27T22:03:57.750Z,94.63
2018-01-27T22:06:25.278Z,91.80
2018-01-27T22:08:52.807Z,97.07
2018-01-27T22:11:20.320Z,91.00
2018-01-27T22:13:48.610Z,80.63
2018-01-27T22:16:16.153Z,89.53
2018-01-27T22:18:43.692Z,87.22
2018-01-27T22:21:11.274Z,74.57
2018-01-27T22:23:38.812Z,85.22
2018-01-27T22:26:06.328Z,86.87
2018-01-27T22:28:33.859Z,76.37
2018-01-27T22:31:02.576Z,89.13
2018-01-27T22:33:30.131Z,85.70
2018-01-27T22:35:57.691Z,76.90
2018-01-27T22:38:25.249Z,79.67
2018-01-27T22:40:53.532Z,79.43
2018-01-27T22:43:21.832Z,125.20
2018-01-27T22:45:49.364Z,71.63
2018-01-27T22:48:16.875Z,72.33
2018-01-27T22:50:44.433Z,72.87
2018-01-27T22:53:12.715Z,70.43
2018-01-27T22:55:40.263Z,65.63
2018-01-27T22:58:07.783Z,69.40
2018-01-27T23:00:36.181Z,68.43
2018-01-27T23:03:03.754Z,75.47
2018-01-27T23:05:31.302Z,65.97
2018-01-27T23:07:58.917Z,66.43
2018-01-27T23:10:26.507Z,64.03
2018-01-27T23:12:54.820Z,66.93
2018-01-27T23:15:22.475Z,59.63
2018-01-27T23:17:50.001Z,64.53
2018-01-27T23:20:17.559Z,58.53
2018-01-27T23:22:45.076Z,55.83
2018-01-27T23:25:12.633Z,60.57
2018-01-27T23:27:40.156Z,62.40
2018-01-27T23:30:07.688Z,59.03
2018-01-27T23:32:35.972Z,58.30
2018-01-27T23:35:03.493Z,54.13
2018-01-27T23:37:31.803Z,64.77
2018-01-27T23:39:59.323Z,56.60
2018-01-27T23:42:26.892Z,51.73
2018-01-27T23:44:54.585Z,53.93
2018-01-27T23:47:22.934Z,49.47
2018-01-27T23:49:50.490Z,47.93
2018-01-27T23:52:18.036Z,59.87
2018-01-27T23:54:46.343Z,42.33
2018-01-27T23:57:13.885Z,45.10
2018-01-27T23:59:41.392Z,48.57
